Time;durP1;ratioP1;P1;durP2;ratioP2;P2;SDS_P1;SDS_P2;PMS_P1;PMS_P2;Temp;Humidity;BMP_temperature;BMP_pressure;BME280_temperature;BME280_humidity;BME280_pressure;Samples;Min_cycle;Max_cycle;Signal;HPM_P1;HPM_P2
2022/07/20 00:00:27;;;;;;;;;;;;;;;25.60;41.90;101157.03;5053306;28;19932;-60
2022/07/20 00:02:52;;;;;;;;;;;;;;;25.78;41.95;101151.56;5052208;28;19916;-60
2022/07/20 00:05:18;;;;;;;;;;;;;;;25.87;44.16;101193.16;5052131;28;19917;-60
2022/07/20 00:07:43;;;;;;;;;;;;;;;25.97;40.41;101202.00;5052143;28;19965;-60
2022/07/20 00:12:52;;;;;;;;;;;;;;;26.19;40.07;101188.06;5071064;28;19926;-60
2022/07/20 00:15:18;;;;;;;;;;;;;;;26.21;41.01;101186.88;5071991;28;19920;-60
2022/07/20 00:17:43;;;;;;;;;;;;;;;26.14;40.60;101177.72;5072236;28;19913;-60
2022/07/20 00:20:10;;;;;;;;;;;;;;;25.98;42.95;101173.00;5070337;28;19924;-59
2022/07/20 00:22:35;;;;;;;;;;;;;;;25.68;46.30;101167.94;5070416;28;20365;-60
2022/07/20 00:25:00;;;;;;;;;;;;;;;25.39;48.10;101167.41;5072043;28;19924;-60
2022/07/20 00:27:25;;;;;;;;;;;;;;;25.17;49.74;101172.28;5072126;28;19942;-60
2022/07/20 00:29:51;;;;;;;;;;;;;;;25.05;49.96;101170.81;5060494;28;19924;-60
2022/07/20 00:32:16;;;;;;;;;;;;;;;24.95;49.65;101162.75;5052928;28;19920;-60
2022/07/20 00:34:41;;;;;;;;;;;;;;;24.89;49.73;101155.28;5033897;28;20127;-60
2022/07/20 00:37:06;;;;;;;;;;;;;;;24.78;48.97;101159.91;5052242;28;20040;-60
2022/07/20 00:39:32;;;;;;;;;;;;;;;24.79;49.72;101158.06;5052958;28;19974;-60
2022/07/20 00:41:57;;;;;;;;;;;;;;;24.79;50.70;101158.91;5051886;28;20406;-60
2022/07/20 00:44:22;;;;;;;;;;;;;;;24.76;50.43;101156.50;5052889;28;20328;-60
2022/07/20 00:46:47;;;;;;;;;;;;;;;24.63;51.08;101151.44;5051576;28;19917;-60
2022/07/20 00:49:13;;;;;;;;;;;;;;;24.49;53.77;101151.94;5051770;28;19916;-60
2022/07/20 00:51:40;;;;;;;;;;;;;;;24.44;56.56;101159.69;5052580;28;20300;-60
2022/07/20 00:54:06;;;;;;;;;;;;;;;24.48;57.52;101156.53;5052906;28;20284;-60
2022/07/20 00:56:31;;;;;;;;;;;;;;;24.45;57.96;101156.84;5051485;28;19916;-60
2022/07/20 00:58:57;;;;;;;;;;;;;;;24.47;58.22;101153.97;5033910;28;19924;-60
2022/07/20 01:01:22;;;;;;;;;;;;;;;24.44;57.65;101162.38;5037423;28;19931;-59
2022/07/20 01:03:47;;;;;;;;;;;;;;;24.37;58.81;101152.19;5056743;28;20323;-59
2022/07/20 01:06:12;;;;;;;;;;;;;;;24.35;58.30;101161.47;5055479;28;19999;-59
2022/07/20 01:08:38;;;;;;;;;;;;;;;24.32;59.14;101168.03;5055571;28;19948;-59
2022/07/20 01:11:03;;;;;;;;;;;;;;;24.28;59.45;101157.66;5043452;28;19927;-59
2022/07/20 01:13:28;;;;;;;;;;;;;;;24.21;59.90;101168.22;5075331;28;19932;-59
2022/07/20 01:15:54;;;;;;;;;;;;;;;24.27;56.28;101164.94;5055581;28;19959;-59
2022/07/20 01:18:19;;;;;;;;;;;;;;;24.35;55.13;101173.13;5075397;28;19935;-59
2022/07/20 01:20:46;;;;;;;;;;;;;;;24.42;53.48;101167.13;5074729;28;19917;-59
2022/07/20 01:23:12;;;;;;;;;;;;;;;24.44;52.83;101174.06;5055033;28;20111;-59
2022/07/20 01:25:37;;;;;;;;;;;;;;;24.45;52.29;101183.03;5056480;28;20348;-59
2022/07/20 01:28:10;;;;;;;;;;;;;;;24.43;51.05;101175.06;5037520;28;19955;-59
2022/07/20 01:30:36;;;;;;;;;;;;;;;24.43;50.34;101191.31;5055347;28;19920;-59
2022/07/20 01:33:01;;;;;;;;;;;;;;;24.39;49.82;101187.22;5057040;28;19928;-60
2022/07/20 01:35:27;;;;;;;;;;;;;;;24.39;48.23;101187.22;5055969;28;19924;-59
2022/07/20 01:37:52;;;;;;;;;;;;;;;24.46;47.57;101195.56;5056103;28;20058;-59
2022/07/20 01:40:17;;;;;;;;;;;;;;;24.57;47.98;101200.78;5055062;28;19956;-59
2022/07/20 01:42:42;;;;;;;;;;;;;;;24.61;51.68;101193.22;5047507;28;19920;-59
2022/07/20 01:45:08;;;;;;;;;;;;;;;24.57;54.04;101197.25;5056519;28;19995;-59
2022/07/20 01:47:33;;;;;;;;;;;;;;;24.47;59.15;101198.13;5055123;28;19962;-59
2022/07/20 01:49:58;;;;;;;;;;;;;;;24.37;64.49;101195.50;5073110;28;20011;-59
2022/07/20 01:52:24;;;;;;;;;;;;;;;24.15;69.73;101198.59;5038184;28;20039;-59
2022/07/20 01:54:49;;;;;;;;;;;;;;;24.06;73.48;101200.31;5054461;28;19966;-60
2022/07/20 01:57:14;;;;;;;;;;;;;;;23.91;77.43;101223.44;5037704;28;20062;-60
2022/07/20 01:59:39;;;;;;;;;;;;;;;23.78;79.36;101216.47;5054519;28;19923;-59
2022/07/20 02:02:04;;;;;;;;;;;;;;;23.69;81.88;101229.00;5054102;28;20019;-59
2022/07/20 02:04:30;;;;;;;;;;;;;;;23.59;84.62;101225.47;5053108;28;19928;-60
2022/07/20 02:06:55;;;;;;;;;;;;;;;23.49;85.91;101224.63;5057581;28;19924;-60
2022/07/20 02:09:20;;;;;;;;;;;;;;;23.41;86.84;101219.94;5074870;28;20055;-60
2022/07/20 02:11:45;;;;;;;;;;;;;;;23.35;88.14;101221.38;5073191;28;19913;-60
2022/07/20 02:14:11;;;;;;;;;;;;;;;23.30;89.44;101228.19;5059799;28;19925;-59
2022/07/20 02:16:36;;;;;;;;;;;;;;;23.22;90.34;101215.41;5054260;28;19967;-59
2022/07/20 02:19:01;;;;;;;;;;;;;;;23.19;91.09;101223.81;5055346;28;19921;-59
2022/07/20 02:21:29;;;;;;;;;;;;;;;23.13;92.05;101229.75;5054251;28;19919;-59
2022/07/20 02:23:55;;;;;;;;;;;;;;;23.12;92.66;101231.59;5044160;28;20421;-59
2022/07/20 02:26:20;;;;;;;;;;;;;;;23.10;93.23;101221.94;5063811;28;19917;-59
2022/07/20 02:28:45;;;;;;;;;;;;;;;23.06;93.79;101221.34;5055119;28;20386;-59
2022/07/20 02:31:10;;;;;;;;;;;;;;;23.03;94.15;101219.78;5036367;28;19917;-59
2022/07/20 02:33:36;;;;;;;;;;;;;;;23.01;94.69;101208.25;5055914;28;20147;-59
2022/07/20 02:36:01;;;;;;;;;;;;;;;22.98;95.05;101213.97;5073604;28;19942;-60
2022/07/20 02:38:27;;;;;;;;;;;;;;;22.97;95.74;101211.38;5072328;28;20304;-60
2022/07/20 02:40:52;;;;;;;;;;;;;;;22.94;95.98;101217.91;5073950;28;19962;-60
2022/07/20 02:43:18;;;;;;;;;;;;;;;22.87;96.46;101211.38;5067410;28;19962;-59
2022/07/20 02:45:43;;;;;;;;;;;;;;;22.83;97.30;101210.81;5055127;28;20002;-59
2022/07/20 02:48:08;;;;;;;;;;;;;;;22.78;97.96;101223.88;5072264;28;19920;-59
2022/07/20 02:50:37;;;;;;;;;;;;;;;22.73;98.80;101218.88;5071886;28;19921;-59
2022/07/20 02:53:03;;;;;;;;;;;;;;;22.70;99.39;101226.44;5055656;28;20291;-58
2022/07/20 02:55:29;;;;;;;;;;;;;;;22.67;99.61;101230.22;5071676;28;19924;-58
2022/07/20 02:57:54;;;;;;;;;;;;;;;22.63;100.00;101228.81;5073239;28;19917;-59
2022/07/20 03:00:19;;;;;;;;;;;;;;;22.62;100.00;101231.66;5071679;28;19994;-59
2022/07/20 03:02:45;;;;;;;;;;;;;;;22.58;100.00;101231.94;5073346;28;19916;-59
2022/07/20 03:05:10;;;;;;;;;;;;;;;22.54;100.00;101229.63;5052131;28;19926;-59
2022/07/20 03:07:35;;;;;;;;;;;;;;;22.55;100.00;101229.50;5053261;28;19913;-59
2022/07/20 03:10:01;;;;;;;;;;;;;;;22.55;100.00;101237.59;5054282;28;20027;-59
2022/07/20 03:12:26;;;;;;;;;;;;;;;22.53;100.00;101236.03;5053176;28;19964;-58
2022/07/20 03:14:51;;;;;;;;;;;;;;;22.56;100.00;101238.47;5035226;28;19923;-58
2022/07/20 03:17:17;;;;;;;;;;;;;;;22.58;100.00;101236.47;5070226;28;20395;-59
2022/07/20 03:19:42;;;;;;;;;;;;;;;22.63;100.00;101242.31;5088771;28;19920;-58
2022/07/20 03:22:08;;;;;;;;;;;;;;;22.63;100.00;101236.06;5071630;28;19916;-58
2022/07/20 03:24:33;;;;;;;;;;;;;;;22.64;100.00;101243.19;5071483;28;19962;-58
2022/07/20 03:26:58;;;;;;;;;;;;;;;22.61;100.00;101236.22;5044938;28;20365;-58
2022/07/20 03:29:24;;;;;;;;;;;;;;;22.61;100.00;101232.63;5052972;28;20011;-59
2022/07/20 03:31:49;;;;;;;;;;;;;;;22.63;100.00;101252.25;5053885;28;20232;-58
2022/07/20 03:34:14;;;;;;;;;;;;;;;22.62;100.00;101250.53;5052736;28;19931;-58
2022/07/20 03:36:39;;;;;;;;;;;;;;;22.59;100.00;101244.41;5041001;28;19929;-59
2022/07/20 03:39:05;;;;;;;;;;;;;;;22.58;100.00;101260.75;5072957;28;19917;-59
2022/07/20 03:41:30;;;;;;;;;;;;;;;22.55;100.00;101263.75;5071030;28;19943;-59
2022/07/20 03:43:55;;;;;;;;;;;;;;;22.56;100.00;101284.34;5072509;28;20295;-58
2022/07/20 03:46:20;;;;;;;;;;;;;;;22.59;100.00;101284.06;5053051;28;19942;-58
2022/07/20 03:48:45;;;;;;;;;;;;;;;22.58;100.00;101293.16;5016963;28;19947;-58
2022/07/20 03:51:11;;;;;;;;;;;;;;;22.61;100.00;101290.19;5034595;28;19924;-58
2022/07/20 03:53:36;;;;;;;;;;;;;;;22.61;100.00;101282.09;5053689;28;19929;-58
2022/07/20 03:56:02;;;;;;;;;;;;;;;22.63;100.00;101282.78;5052490;28;19913;-58
2022/07/20 03:58:27;;;;;;;;;;;;;;;22.66;100.00;101284.34;5049424;28;20062;-58
2022/07/20 04:00:52;;;;;;;;;;;;;;;22.69;100.00;101292.19;5072484;28;19920;-59
2022/07/20 04:03:17;;;;;;;;;;;;;;;22.70;100.00;101289.34;5069217;28;19965;-58
2022/07/20 04:05:43;;;;;;;;;;;;;;;22.73;100.00;101296.34;5072172;28;20019;-58
2022/07/20 04:08:08;;;;;;;;;;;;;;;22.78;100.00;101290.53;5070459;28;20011;-58
2022/07/20 04:10:34;;;;;;;;;;;;;;;22.84;100.00;101298.06;5072386;28;19917;-58
2022/07/20 04:12:59;;;;;;;;;;;;;;;22.89;100.00;101304.75;5070541;28;19924;-58
2022/07/20 04:15:24;;;;;;;;;;;;;;;22.93;100.00;101310.75;5072099;28;20489;-59
2022/07/20 04:17:50;;;;;;;;;;;;;;;22.99;100.00;101312.91;5068080;28;20494;-59
2022/07/20 04:20:15;;;;;;;;;;;;;;;23.00;99.65;101309.19;5052215;28;19921;-57
2022/07/20 04:22:40;;;;;;;;;;;;;;;23.05;99.23;101312.31;5052158;28;19917;-57
2022/07/20 04:25:06;;;;;;;;;;;;;;;23.13;98.57;101319.72;5053326;28;19921;-58
2022/07/20 04:27:31;;;;;;;;;;;;;;;23.19;97.99;101321.06;5034060;28;20291;-58
2022/07/20 04:29:56;;;;;;;;;;;;;;;23.22;97.57;101316.25;5053085;28;20372;-59
2022/07/20 04:32:21;;;;;;;;;;;;;;;23.29;96.35;101315.66;5052011;28;20335;-59
2022/07/20 04:34:46;;;;;;;;;;;;;;;23.31;95.93;101314.56;5052888;28;20320;-59
2022/07/20 04:37:12;;;;;;;;;;;;;;;23.31;95.47;101316.38;5056283;28;20338;-59
2022/07/20 04:39:37;;;;;;;;;;;;;;;23.31;95.21;101322.66;5068661;28;19921;-59
2022/07/20 04:42:03;;;;;;;;;;;;;;;23.35;93.56;101326.78;5075049;28;19938;-58
2022/07/20 04:44:28;;;;;;;;;;;;;;;23.35;93.07;101340.28;5059396;28;19916;-59
2022/07/20 04:46:53;;;;;;;;;;;;;;;23.37;91.98;101342.84;5055982;28;20261;-59
2022/07/20 04:49:18;;;;;;;;;;;;;;;23.44;91.18;101348.53;5056753;28;19921;-59
2022/07/20 04:51:44;;;;;;;;;;;;;;;23.52;89.03;101352.25;5055586;28;19925;-58
2022/07/20 04:54:10;;;;;;;;;;;;;;;23.56;88.55;101350.13;5055844;28;19932;-58
2022/07/20 04:56:35;;;;;;;;;;;;;;;23.57;87.48;101359.94;5056999;28;20372;-58
2022/07/20 04:59:00;;;;;;;;;;;;;;;23.54;84.86;101352.09;5053810;28;19921;-59
2022/07/20 05:01:26;;;;;;;;;;;;;;;23.54;83.99;101355.66;5066109;28;19928;-59
2022/07/20 05:03:51;;;;;;;;;;;;;;;23.51;82.72;101358.63;5061206;28;19916;-59
2022/07/20 05:06:16;;;;;;;;;;;;;;;23.48;82.10;101356.22;5056773;28;20343;-59
2022/07/20 05:08:42;;;;;;;;;;;;;;;23.53;81.00;101358.50;5053682;28;19917;-59
2022/07/20 05:11:07;;;;;;;;;;;;;;;23.58;79.83;101345.41;5038300;28;19917;-59
2022/07/20 05:13:33;;;;;;;;;;;;;;;23.58;79.87;101360.78;5021193;28;19932;-59
2022/07/20 05:15:58;;;;;;;;;;;;;;;23.65;78.44;101372.75;5037087;28;20312;-59
2022/07/20 05:18:23;;;;;;;;;;;;;;;23.63;79.18;101362.09;5056942;28;19913;-57
2022/07/20 05:20:48;;;;;;;;;;;;;;;23.71;79.13;101359.50;5053141;28;20287;-57
2022/07/20 05:23:13;;;;;;;;;;;;;;;23.63;79.56;101372.91;5054596;28;19924;-57
2022/07/20 05:25:39;;;;;;;;;;;;;;;23.63;80.62;101370.19;5052685;28;20776;-59
2022/07/20 05:28:05;;;;;;;;;;;;;;;23.65;81.02;101370.88;5032067;28;19925;-57
2022/07/20 05:30:31;;;;;;;;;;;;;;;23.62;81.72;101378.41;5056327;28;19917;-59
2022/07/20 05:32:56;;;;;;;;;;;;;;;23.62;82.05;101389.22;5037115;28;20405;-59
2022/07/20 05:35:21;;;;;;;;;;;;;;;23.65;81.96;101391.66;5053339;28;20266;-58
2022/07/20 05:37:46;;;;;;;;;;;;;;;23.70;82.27;101400.22;5055587;28;20292;-58
2022/07/20 05:40:13;;;;;;;;;;;;;;;23.64;83.03;101409.72;5036911;28;19959;-58
2022/07/20 05:42:38;;;;;;;;;;;;;;;23.62;83.17;101410.88;5072097;28;19970;-60
2022/07/20 05:45:03;;;;;;;;;;;;;;;23.59;83.58;101408.44;5074952;28;20007;-59
2022/07/20 05:47:29;;;;;;;;;;;;;;;23.63;84.01;101416.16;5073962;28;19917;-59
2022/07/20 05:49:54;;;;;;;;;;;;;;;23.70;83.71;101411.03;5072979;28;19916;-59
2022/07/20 05:52:19;;;;;;;;;;;;;;;23.76;83.42;101418.59;5065318;28;19951;-59
2022/07/20 05:54:44;;;;;;;;;;;;;;;23.71;83.12;101418.16;5050079;28;19925;-59
2022/07/20 05:57:10;;;;;;;;;;;;;;;23.76;82.31;101409.59;5047746;28;19917;-58
2022/07/20 05:59:35;;;;;;;;;;;;;;;23.88;82.16;101422.00;5054326;28;19924;-58
2022/07/20 06:02:00;;;;;;;;;;;;;;;23.92;81.30;101436.97;5070630;28;19990;-59
2022/07/20 06:04:25;;;;;;;;;;;;;;;24.01;81.14;101432.56;5053689;28;19971;-59
2022/07/20 06:06:51;;;;;;;;;;;;;;;24.04;81.67;101433.13;5033463;28;19921;-59
2022/07/20 06:09:16;;;;;;;;;;;;;;;24.07;80.75;101442.81;5051399;28;20003;-59
2022/07/20 06:11:41;;;;;;;;;;;;;;;24.13;80.38;101444.09;5049172;28;19916;-58
2022/07/20 06:14:06;;;;;;;;;;;;;;;23.92;81.56;101466.72;5058757;28;20024;-57
2022/07/20 06:16:32;;;;;;;;;;;;;;;24.02;81.79;101474.84;5052251;28;19960;-58
2022/07/20 06:18:57;;;;;;;;;;;;;;;24.05;82.49;101475.44;5035371;28;19923;-59
2022/07/20 06:21:22;;;;;;;;;;;;;;;24.13;81.12;101490.06;5053167;28;19921;-59
2022/07/20 06:23:47;;;;;;;;;;;;;;;24.18;81.25;101499.50;5041009;28;20343;-59
2022/07/20 06:26:13;;;;;;;;;;;;;;;24.25;80.21;101504.34;5035437;28;20020;-58
2022/07/20 06:28:38;;;;;;;;;;;;;;;24.17;79.56;101514.03;5065333;28;19954;-58
2022/07/20 06:31:05;;;;;;;;;;;;;;;24.25;80.71;101532.25;5053750;28;19928;-58
2022/07/20 06:33:31;;;;;;;;;;;;;;;24.33;83.67;101548.63;5044906;28;19943;-59
2022/07/20 06:35:56;;;;;;;;;;;;;;;24.35;83.82;101543.94;5045037;28;19916;-58
2022/07/20 06:38:21;;;;;;;;;;;;;;;24.34;84.29;101549.50;5053249;28;20015;-59
2022/07/20 06:40:47;;;;;;;;;;;;;;;24.29;84.23;101552.63;5052615;28;20303;-59
2022/07/20 06:43:12;;;;;;;;;;;;;;;24.33;83.89;101550.47;5053441;28;19967;-59
2022/07/20 06:45:37;;;;;;;;;;;;;;;24.42;82.94;101563.16;5053605;28;19917;-59
2022/07/20 06:48:03;;;;;;;;;;;;;;;24.31;82.32;101577.69;5034965;28;19939;-58
2022/07/20 06:50:28;;;;;;;;;;;;;;;24.08;82.36;101582.50;5074332;28;19999;-58
2022/07/20 06:52:53;;;;;;;;;;;;;;;24.07;82.91;101580.78;5053278;28;19912;-58
2022/07/20 06:55:18;;;;;;;;;;;;;;;24.04;81.92;101586.47;5044126;28;19931;-55
2022/07/20 06:57:44;;;;;;;;;;;;;;;23.92;82.79;101587.59;5052236;28;19917;-48
2022/07/20 07:00:10;;;;;;;;;;;;;;;24.01;83.42;101595.72;5067784;28;19929;-51
2022/07/20 07:02:36;;;;;;;;;;;;;;;24.08;82.51;101597.88;5052131;28;19917;-50
2022/07/20 07:05:01;;;;;;;;;;;;;;;24.13;82.88;101614.53;5052664;28;19924;-56
2022/07/20 07:07:26;;;;;;;;;;;;;;;24.15;82.90;101618.81;5036032;28;20300;-58
2022/07/20 07:09:51;;;;;;;;;;;;;;;24.17;83.22;101613.25;5032710;28;19912;-58
2022/07/20 07:12:17;;;;;;;;;;;;;;;24.01;83.17;101611.09;5040147;28;19955;-58
2022/07/20 07:14:42;;;;;;;;;;;;;;;23.88;84.17;101601.34;5052754;28;19924;-59
2022/07/20 07:17:07;;;;;;;;;;;;;;;23.99;84.27;101610.38;5046691;28;19924;-60
2022/07/20 07:19:33;;;;;;;;;;;;;;;24.10;83.79;101607.56;5052328;28;20303;-57
2022/07/20 07:21:58;;;;;;;;;;;;;;;24.16;82.66;101608.88;5040037;28;19960;-58
2022/07/20 07:24:23;;;;;;;;;;;;;;;24.29;81.12;101616.72;5056034;28;19925;-59
2022/07/20 07:26:48;;;;;;;;;;;;;;;24.30;81.64;101615.75;5056330;28;19924;-58
2022/07/20 07:29:14;;;;;;;;;;;;;;;24.23;82.03;101620.84;5057206;28;20304;-59
2022/07/20 07:31:39;;;;;;;;;;;;;;;24.16;82.50;101628.66;5063947;28;19960;-59
2022/07/20 07:34:05;;;;;;;;;;;;;;;24.11;81.54;101608.44;5056445;28;19986;-58
2022/07/20 07:36:30;;;;;;;;;;;;;;;24.03;81.66;101623.50;5071725;28;19924;-58
2022/07/20 07:38:55;;;;;;;;;;;;;;;24.25;81.02;101631.53;5052189;28;20020;-58
2022/07/20 07:41:21;;;;;;;;;;;;;;;24.40;80.60;101619.31;5046740;28;19917;-58
2022/07/20 07:43:46;;;;;;;;;;;;;;;24.69;79.83;101604.94;5067899;28;19921;-59
2022/07/20 07:46:12;;;;;;;;;;;;;;;24.77;78.82;101615.94;5052771;28;20326;-58
2022/07/20 07:48:37;;;;;;;;;;;;;;;24.58;77.76;101614.06;5049911;28;20339;-59
2022/07/20 07:51:02;;;;;;;;;;;;;;;24.60;77.85;101613.91;5044255;28;19980;-59
2022/07/20 07:53:28;;;;;;;;;;;;;;;24.73;76.53;101630.72;5058873;28;20035;-58
2022/07/20 07:55:53;;;;;;;;;;;;;;;24.68;76.37;101641.13;5047358;28;19983;-59
2022/07/20 07:58:18;;;;;;;;;;;;;;;24.87;76.15;101643.00;5051961;28;19924;-59
2022/07/20 08:00:43;;;;;;;;;;;;;;;25.09;75.17;101652.69;5045952;28;20008;-59
2022/07/20 08:03:09;;;;;;;;;;;;;;;25.08;74.81;101625.72;5047078;28;19921;-59
2022/07/20 08:05:34;;;;;;;;;;;;;;;25.09;73.62;101627.44;5051741;28;19912;-59
2022/07/20 08:08:10;;;;;;;;;;;;;;;25.15;72.64;101633.13;5050562;28;19950;-59
2022/07/20 08:10:35;;;;;;;;;;;;;;;25.29;70.56;101633.69;5042844;28;20340;-58
2022/07/20 08:13:01;;;;;;;;;;;;;;;25.52;68.63;101626.94;5047122;28;19964;-59
2022/07/20 08:15:26;;;;;;;;;;;;;;;25.74;69.01;101611.28;5047375;28;20383;-59
2022/07/20 08:17:51;;;;;;;;;;;;;;;25.74;63.12;101605.84;5052228;28;20011;-58
2022/07/20 08:20:21;;;;;;;;;;;;;;;25.78;60.58;101609.13;5049688;28;19960;-59
2022/07/20 08:22:46;;;;;;;;;;;;;;;25.72;56.39;101617.84;5051221;28;20272;-59
2022/07/20 08:25:12;;;;;;;;;;;;;;;25.63;57.14;101616.91;5069870;28;19928;-58
2022/07/20 08:27:37;;;;;;;;;;;;;;;25.63;58.13;101608.78;5052601;28;19920;-58
2022/07/20 08:30:03;;;;;;;;;;;;;;;25.64;59.22;101616.75;5070578;28;20015;-59
2022/07/20 08:32:28;;;;;;;;;;;;;;;25.65;59.86;101594.06;5053202;28;19921;-59
2022/07/20 08:34:53;;;;;;;;;;;;;;;25.80;59.79;101596.28;5071351;28;19974;-59
2022/07/20 08:37:19;;;;;;;;;;;;;;;25.89;59.30;101602.66;5071113;28;20018;-59
2022/07/20 08:39:44;;;;;;;;;;;;;;;25.85;60.20;101608.38;5068347;28;19982;-58
2022/07/20 08:42:09;;;;;;;;;;;;;;;25.98;59.58;101604.44;5059973;28;20308;-59
2022/07/20 08:44:35;;;;;;;;;;;;;;;25.96;59.57;101607.31;5052898;28;20483;-59
2022/07/20 08:47:00;;;;;;;;;;;;;;;25.61;60.78;101618.91;5048963;28;19927;-57
2022/07/20 08:49:26;;;;;;;;;;;;;;;25.60;61.02;101622.63;5068440;28;19921;-58
2022/07/20 08:51:51;;;;;;;;;;;;;;;25.36;62.51;101640.28;5057397;28;20388;-58
2022/07/20 08:54:17;;;;;;;;;;;;;;;25.36;63.24;101621.28;5052704;28;20368;-58
2022/07/20 08:56:42;;;;;;;;;;;;;;;25.35;64.05;101635.81;5067616;28;19920;-58
2022/07/20 08:59:08;;;;;;;;;;;;;;;25.27;63.33;101614.84;5052596;28;19928;-58
2022/07/20 09:01:33;;;;;;;;;;;;;;;25.23;64.87;101608.03;5018590;28;20330;-59
2022/07/20 09:04:04;;;;;;;;;;;;;;;25.22;65.26;101571.06;5061504;28;20357;-59
2022/07/20 09:06:29;;;;;;;;;;;;;;;25.60;63.68;101523.16;5070011;28;19916;-58
2022/07/20 09:09:06;;;;;;;;;;;;;;;25.88;63.45;101522.25;5053466;28;19974;-58
2022/07/20 09:11:33;;;;;;;;;;;;;;;26.00;62.09;101510.19;5059587;28;19913;-59
2022/07/20 09:13:58;;;;;;;;;;;;;;;25.91;61.60;101517.38;5057778;28;20324;-59
2022/07/20 09:16:39;;;;;;;;;;;;;;;25.92;61.25;101531.78;5057910;28;20371;-58
2022/07/20 09:19:04;;;;;;;;;;;;;;;25.68;59.72;101568.50;5059860;28;19924;-58
2022/07/20 09:21:31;;;;;;;;;;;;;;;25.84;60.73;101639.25;5035842;28;19917;-58
2022/07/20 09:24:00;;;;;;;;;;;;;;;27.12;57.41;101690.88;5039085;28;19951;-58
2022/07/20 09:26:27;;;;;;;;;;;;;;;28.50;53.23;101670.19;5073545;28;19916;-59
2022/07/20 09:28:53;;;;;;;;;;;;;;;29.78;48.27;101702.41;5075046;28;19916;-59
2022/07/20 09:31:19;;;;;;;;;;;;;;;30.05;47.21;101627.44;5055352;28;19919;-59
2022/07/20 09:33:51;;;;;;;;;;;;;;;30.29;45.39;101657.50;5052528;28;19928;-58
2022/07/20 09:36:18;;;;;;;;;;;;;;;30.12;44.86;101678.59;5069629;28;19970;-59
2022/07/20 09:38:43;;;;;;;;;;;;;;;29.71;45.58;101669.50;5073748;28;19920;-58
2022/07/20 09:41:25;;;;;;;;;;;;;;;29.99;45.33;101682.75;5072484;28;19924;-58
2022/07/20 09:43:51;;;;;;;;;;;;;;;29.85;46.80;101687.03;5057970;28;19916;-60
2022/07/20 09:46:24;;;;;;;;;;;;;;;30.00;45.45;101700.84;5072488;28;20011;-60
2022/07/20 09:48:53;;;;;;;;;;;;;;;29.99;44.79;101703.72;5058133;28;19917;-60
2022/07/20 09:51:21;;;;;;;;;;;;;;;29.80;45.01;101727.66;5074091;28;20011;-59
2022/07/20 09:53:48;;;;;;;;;;;;;;;29.24;46.37;101733.84;5071988;28;19921;-59
2022/07/20 09:56:15;;;;;;;;;;;;;;;28.53;49.71;101738.84;5071432;28;19917;-59
2022/07/20 09:58:41;;;;;;;;;;;;;;;27.87;51.42;101741.22;5065040;28;19922;-59
2022/07/20 10:01:06;;;;;;;;;;;;;;;27.34;55.38;101734.03;5040743;28;19963;-58
2022/07/20 10:03:32;;;;;;;;;;;;;;;27.17;57.31;101724.88;5036405;28;20368;-59
2022/07/20 10:05:57;;;;;;;;;;;;;;;26.80;57.29;101719.47;5037519;28;20447;-59
2022/07/20 10:08:23;;;;;;;;;;;;;;;26.83;58.68;101729.19;5054403;28;19917;-57
2022/07/20 10:10:48;;;;;;;;;;;;;;;26.80;58.88;101730.34;5054310;28;20295;-59
2022/07/20 10:13:13;;;;;;;;;;;;;;;26.86;57.61;101739.72;5043905;28;19913;-58
2022/07/20 10:15:51;;;;;;;;;;;;;;;27.08;56.07;101749.28;5072635;28;20390;-57
2022/07/20 10:18:17;;;;;;;;;;;;;;;27.71;53.88;101752.00;5070855;28;19916;-59
2022/07/20 10:20:42;;;;;;;;;;;;;;;28.31;52.36;101743.00;5071357;28;20367;-59
2022/07/20 10:23:16;;;;;;;;;;;;;;;28.25;51.21;101730.03;5054826;28;19921;-59
2022/07/20 10:25:42;;;;;;;;;;;;;;;27.30;54.34;101750.66;5073873;28;19970;-60
2022/07/20 10:28:22;;;;;;;;;;;;;;;26.95;57.72;101754.25;5070149;28;19916;-60
2022/07/20 10:30:52;;;;;;;;;;;;;;;26.83;56.80;101750.91;5070972;28;20414;-58
2022/07/20 10:33:18;;;;;;;;;;;;;;;27.35;56.47;101752.06;5052560;28;21175;-59
2022/07/20 10:35:45;;;;;;;;;;;;;;;28.05;53.17;101753.97;5062219;28;20347;-58
2022/07/20 10:38:11;;;;;;;;;;;;;;;29.04;49.59;101760.59;5071656;28;19916;-59
2022/07/20 10:41:31;;;;;;;;;;;;;;;29.53;48.33;101772.59;5051933;28;19927;-59
2022/07/20 10:43:21;;;;;;;;;;;;;;;29.49;48.97;101766.63;5054166;28;19920;-60
2022/07/20 10:45:46;;;;;;;;;;;;;;;29.57;48.42;101784.84;5054575;28;20395;-60
2022/07/20 10:48:11;;;;;;;;;;;;;;;29.23;49.43;101777.66;5064440;28;19932;-58
2022/07/20 10:50:38;;;;;;;;;;;;;;;28.39;52.87;101774.88;5070411;28;19928;-58
2022/07/20 10:53:15;;;;;;;;;;;;;;;27.42;56.35;101737.69;5059414;28;19917;-58
2022/07/20 10:55:52;;;;;;;;;;;;;;;26.92;59.22;101749.97;5046027;28;19927;-58
2022/07/20 10:58:23;;;;;;;;;;;;;;;26.60;61.78;101740.44;5042740;28;20297;-59
2022/07/20 11:00:56;;;;;;;;;;;;;;;26.07;64.57;101731.13;5058988;28;20020;-59
2022/07/20 11:03:27;;;;;;;;;;;;;;;25.62;66.96;101726.41;5033384;28;19994;-59
2022/07/20 11:06:12;;;;;;;;;;;;;;;25.35;68.84;101704.47;5066096;28;19924;-59
2022/07/20 11:08:38;;;;;;;;;;;;;;;25.11;69.50;101717.59;5044404;28;19928;-59
2022/07/20 11:11:04;;;;;;;;;;;;;;;24.94;78.61;101714.59;5051134;28;19927;-59
2022/07/20 11:13:29;;;;;;;;;;;;;;;24.66;82.78;101657.53;5053443;28;19921;-59
2022/07/20 11:15:57;;;;;;;;;;;;;;;24.17;84.17;101654.72;5052470;28;19921;-60
2022/07/20 11:18:23;;;;;;;;;;;;;;;23.52;92.37;101700.09;5054538;28;19924;-58
2022/07/20 11:20:53;;;;;;;;;;;;;;;23.16;100.00;101711.22;5056074;28;20276;-58
2022/07/20 11:23:20;;;;;;;;;;;;;;;23.06;100.00;101727.31;5034959;28;19917;-59
2022/07/20 11:25:47;;;;;;;;;;;;;;;23.33;100.00;101723.31;5053021;28;19917;-59
2022/07/20 11:28:13;;;;;;;;;;;;;;;23.94;100.00;101732.53;5052836;28;20304;-59
2022/07/20 11:30:38;;;;;;;;;;;;;;;24.43;100.00;101723.75;5053931;28;19917;-59
2022/07/20 11:33:04;;;;;;;;;;;;;;;25.07;96.56;101722.44;5060333;28;19928;-59
2022/07/20 11:35:29;;;;;;;;;;;;;;;25.79;94.15;101738.34;5055613;28;19921;-59
2022/07/20 11:37:54;;;;;;;;;;;;;;;26.54;86.66;101738.34;5040746;28;19923;-60
2022/07/20 11:40:20;;;;;;;;;;;;;;;27.38;90.00;101744.44;5021438;28;19925;-59
2022/07/20 11:43:04;;;;;;;;;;;;;;;27.81;79.20;101752.75;5052828;28;19970;-59
2022/07/20 11:45:29;;;;;;;;;;;;;;;27.78;77.14;101753.09;5070161;28;19916;-59
2022/07/20 11:47:54;;;;;;;;;;;;;;;27.81;73.29;101750.03;5062264;28;20421;-58
2022/07/20 11:50:20;;;;;;;;;;;;;;;28.00;75.27;101759.00;5054548;28;20295;-59
2022/07/20 11:52:45;;;;;;;;;;;;;;;28.31;77.41;101769.41;5057124;28;19920;-59
2022/07/20 11:55:10;;;;;;;;;;;;;;;28.52;73.26;101772.53;5062867;28;19931;-59
2022/07/20 11:57:37;;;;;;;;;;;;;;;28.38;72.30;101784.06;5069020;28;19963;-59
2022/07/20 12:00:03;;;;;;;;;;;;;;;28.41;69.21;101779.13;5070355;28;19923;-59
2022/07/20 12:02:29;;;;;;;;;;;;;;;27.79;72.34;101793.75;5056155;28;20443;-60
2022/07/20 12:04:54;;;;;;;;;;;;;;;27.37;73.37;101799.84;5033852;28;20079;-59
2022/07/20 12:10:17;;;;;;;;;;;;;;;27.09;75.25;101782.75;5055567;28;19967;-60
2022/07/20 12:12:45;;;;;;;;;;;;;;;26.78;75.45;101783.97;5055786;28;20329;-59
2022/07/20 12:15:10;;;;;;;;;;;;;;;26.38;78.15;101790.56;5033931;28;19928;-60
2022/07/20 12:17:45;;;;;;;;;;;;;;;26.26;77.48;101783.66;5067570;28;19970;-59
2022/07/20 12:20:10;;;;;;;;;;;;;;;26.11;77.67;101792.28;5052036;28;19932;-58
2022/07/20 12:22:36;;;;;;;;;;;;;;;25.99;79.07;101786.13;5061710;28;19921;-58
2022/07/20 12:25:03;;;;;;;;;;;;;;;25.77;80.99;101778.31;5064082;28;19967;-59
2022/07/20 12:27:30;;;;;;;;;;;;;;;25.58;80.42;101792.78;5049854;28;19917;-58
2022/07/20 12:29:55;;;;;;;;;;;;;;;25.34;79.10;101796.75;5066486;28;19944;-58
2022/07/20 12:32:28;;;;;;;;;;;;;;;25.17;80.05;101801.88;5071487;28;19974;-58
2022/07/20 12:34:54;;;;;;;;;;;;;;;25.08;79.21;101807.28;5070859;28;19943;-59